createdAt,value
2022-12-13T00:01:22.544Z,93548.34
2022-12-13T00:03:49.375Z,93551.22
2022-12-13T00:06:16.111Z,93560.75
2022-12-13T00:08:42.810Z,93563.03
2022-12-13T00:11:12.893Z,93565.38
2022-12-13T00:13:41.707Z,93569.75
2022-12-13T00:16:12.108Z,93563.22
2022-12-13T00:18:39.046Z,93576.59
2022-12-13T00:21:12.802Z,93567.16
2022-12-13T00:23:39.609Z,93574.00
2022-12-13T00:26:10.351Z,93571.94
2022-12-13T00:28:37.679Z,93575.00
2022-12-13T00:31:27.341Z,93585.06
2022-12-13T00:33:51.296Z,93580.06
2022-12-13T00:36:18.493Z,93576.56
2022-12-13T00:38:45.731Z,93575.03
2022-12-13T00:41:19.831Z,93572.25
2022-12-13T00:43:47.156Z,93574.56
2022-12-13T00:46:15.803Z,93574.66
2022-12-13T00:48:43.885Z,93571.00
2022-12-13T00:51:12.350Z,93570.34
2022-12-13T00:53:39.005Z,93570.94
2022-12-13T00:56:11.936Z,93572.78
2022-12-13T00:58:39.278Z,93574.66
2022-12-13T01:01:08.553Z,93572.50
2022-12-13T01:03:35.899Z,93572.69
2022-12-13T01:06:16.462Z,93575.13
2022-12-13T01:08:44.146Z,93579.34
2022-12-13T01:11:12.218Z,93584.50
2022-12-13T01:13:39.707Z,93581.06
2022-12-13T01:16:09.094Z,93582.97
2022-12-13T01:18:36.874Z,93583.59
2022-12-13T01:21:22.284Z,93579.53
2022-12-13T01:23:49.607Z,93579.06
2022-12-13T01:26:20.145Z,93573.78
2022-12-13T01:28:47.571Z,93566.19
2022-12-13T01:31:17.130Z,93572.38
2022-12-13T01:33:43.902Z,93562.00
2022-12-13T01:36:16.004Z,93563.41
2022-12-13T01:38:42.857Z,93568.25
2022-12-13T01:41:17.445Z,93567.84
2022-12-13T01:43:44.556Z,93573.81
2022-12-13T01:46:12.346Z,93558.06
2022-12-13T01:48:46.295Z,93559.63
2022-12-13T01:51:15.897Z,93563.31
2022-12-13T01:53:44.354Z,93566.34
2022-12-13T01:56:18.132Z,93567.91
2022-12-13T01:58:46.572Z,93575.03
2022-12-13T02:01:14.480Z,93573.31
2022-12-13T02:03:41.101Z,93574.41
2022-12-13T02:06:16.674Z,93577.81
2022-12-13T02:08:44.791Z,93573.63
2022-12-13T02:11:11.918Z,93575.19
2022-12-13T02:13:38.602Z,93566.81
2022-12-13T02:16:52.961Z,93570.06
2022-12-13T02:19:42.128Z,93561.22
2022-12-13T02:22:27.773Z,93563.69
2022-12-13T02:25:23.057Z,93565.41
2022-12-13T02:28:30.314Z,93577.31
2022-12-13T02:31:10.554Z,93560.06
2022-12-13T02:33:46.105Z,93571.97
2022-12-13T02:36:27.897Z,93582.94
2022-12-13T02:39:30.558Z,93580.09
2022-12-13T02:42:05.932Z,93580.56
2022-12-13T02:44:41.318Z,93582.84
2022-12-13T02:47:22.183Z,93586.03
2022-12-13T02:49:57.347Z,93579.53
2022-12-13T02:52:27.532Z,93577.09
2022-12-13T02:54:55.846Z,93586.47
2022-12-13T02:57:40.521Z,93589.88
2022-12-13T03:00:12.386Z,93590.81
2022-12-13T03:02:45.138Z,93585.34
2022-12-13T03:06:19.726Z,93587.69
2022-12-13T03:09:10.728Z,93595.06
2022-12-13T03:12:16.354Z,93586.44
2022-12-13T03:14:56.351Z,93582.53
2022-12-13T03:17:26.173Z,93592.28
2022-12-13T03:19:54.469Z,93583.03
2022-12-13T03:22:21.193Z,93590.72
2022-12-13T03:24:47.835Z,93592.84
2022-12-13T03:27:14.483Z,93595.19
2022-12-13T03:29:41.625Z,93600.63
2022-12-13T03:32:08.244Z,93589.66
2022-12-13T03:34:44.812Z,93589.09
2022-12-13T03:37:12.632Z,93587.22
2022-12-13T03:39:39.461Z,93596.84
2022-12-13T03:42:06.441Z,93583.84
2022-12-13T03:44:33.315Z,93590.72
2022-12-13T03:47:00.849Z,93604.84
2022-12-13T03:49:27.719Z,93597.69
2022-12-13T03:52:02.308Z,93625.03
2022-12-13T03:54:28.888Z,93622.22
2022-12-13T03:56:55.626Z,93617.03
2022-12-13T03:59:22.196Z,93616.47
2022-12-13T04:01:48.875Z,93619.72
2022-12-13T04:04:15.536Z,93619.28
2022-12-13T04:06:42.137Z,93620.53
2022-12-13T04:09:08.784Z,93618.19
2022-12-13T04:11:53.824Z,93625.78
2022-12-13T04:14:21.873Z,93626.72
2022-12-13T04:16:50.262Z,93619.72
2022-12-13T04:19:23.030Z,93640.56
2022-12-13T04:21:50.379Z,93642.09
2022-12-13T04:24:18.832Z,93638.97
2022-12-13T04:26:45.507Z,93642.09
2022-12-13T04:29:15.385Z,93642.34
2022-12-13T04:31:42.240Z,93652.88
2022-12-13T04:34:09.020Z,93663.72
2022-12-13T04:36:35.569Z,93669.72
2022-12-13T04:39:03.745Z,93677.69
2022-12-13T04:41:50.049Z,93671.69
2022-12-13T04:44:27.892Z,93670.56
2022-12-13T04:47:01.031Z,93673.25
2022-12-13T04:49:31.262Z,93670.38
2022-12-13T04:52:01.150Z,93678.59
2022-12-13T04:54:35.712Z,93677.81
2022-12-13T04:57:06.451Z,93679.56
2022-12-13T04:59:33.069Z,93687.00
2022-12-13T05:01:59.683Z,93687.91
2022-12-13T05:04:32.146Z,93689.16
2022-12-13T05:06:59.453Z,93694.38
2022-12-13T05:09:26.150Z,93687.94
2022-12-13T05:11:52.731Z,93681.72
2022-12-13T05:14:28.157Z,93699.25
2022-12-13T05:16:54.869Z,93697.56
2022-12-13T05:19:21.581Z,93696.69
2022-12-13T05:21:57.786Z,93709.75
2022-12-13T05:24:28.196Z,93698.44
2022-12-13T05:26:54.775Z,93696.06
2022-12-13T05:29:26.181Z,93709.69
2022-12-13T05:31:52.814Z,93699.56
2022-12-13T05:34:19.444Z,93698.59
2022-12-13T05:36:46.001Z,93699.94
2022-12-13T05:39:28.526Z,93704.59
2022-12-13T05:42:02.269Z,93717.94
2022-12-13T05:44:30.543Z,93714.16
2022-12-13T05:46:57.137Z,93720.09
2022-12-13T05:49:23.789Z,93717.31
2022-12-13T05:51:50.453Z,93719.63
2022-12-13T05:54:17.235Z,93726.53
2022-12-13T05:56:43.868Z,93730.97
2022-12-13T05:59:10.470Z,93731.09
2022-12-13T06:01:37.112Z,93744.13
2022-12-13T06:04:10.488Z,93738.94
2022-12-13T06:06:37.586Z,93747.81
2022-12-13T06:09:04.393Z,93752.63
2022-12-13T06:11:32.439Z,93753.53
2022-12-13T06:14:01.042Z,93746.78
2022-12-13T06:16:28.272Z,93739.63
2022-12-13T06:19:03.236Z,93739.47
2022-12-13T06:21:41.200Z,93736.28
2022-12-13T06:24:12.962Z,93735.44
2022-12-13T06:26:39.549Z,93746.88
2022-12-13T06:29:06.207Z,93751.06
2022-12-13T06:31:32.818Z,93762.03
2022-12-13T06:34:14.961Z,93766.53
2022-12-13T06:36:42.357Z,93760.19
2022-12-13T06:39:08.939Z,93758.91
2022-12-13T06:41:36.434Z,93765.25
2022-12-13T06:44:03.094Z,93768.38
2022-12-13T06:46:29.768Z,93760.16
2022-12-13T06:48:57.040Z,93759.94
2022-12-13T06:51:33.041Z,93762.19
2022-12-13T06:54:01.908Z,93759.19
2022-12-13T06:56:29.314Z,93760.00
2022-12-13T06:59:01.423Z,93769.34
2022-12-13T07:01:37.391Z,93763.19
2022-12-13T07:04:29.539Z,93761.91
2022-12-13T07:06:54.069Z,93773.16
2022-12-13T07:09:21.888Z,93783.06
2022-12-13T07:11:51.932Z,93770.88
2022-12-13T07:14:19.090Z,93772.94
2022-12-13T07:16:45.804Z,93779.31
2022-12-13T07:19:23.760Z,93780.38
2022-12-13T07:21:54.627Z,93779.09
2022-12-13T07:24:28.068Z,93773.63
2022-12-13T07:26:57.613Z,93775.47
2022-12-13T07:29:24.274Z,93784.25
2022-12-13T07:32:00.997Z,93790.97
2022-12-13T07:34:28.613Z,93795.81
2022-12-13T07:36:55.524Z,93786.53
2022-12-13T07:39:25.961Z,93784.56
2022-12-13T07:41:57.415Z,93781.56
2022-12-13T07:44:27.239Z,93792.50
2022-12-13T07:46:54.128Z,93793.44
2022-12-13T07:49:20.854Z,93797.69
2022-12-13T07:51:47.710Z,93798.25
2022-12-13T07:54:14.415Z,93807.50
2022-12-13T07:56:41.068Z,93798.78
2022-12-13T07:59:08.903Z,93801.06
2022-12-13T08:01:35.753Z,93791.56
2022-12-13T08:04:06.082Z,93795.06
2022-12-13T08:06:37.883Z,93809.88
2022-12-13T08:09:05.848Z,93805.38
2022-12-13T08:11:32.748Z,93808.31
2022-12-13T08:13:59.717Z,93808.22
2022-12-13T08:16:29.366Z,93823.22
2022-12-13T08:19:01.058Z,93817.56
2022-12-13T08:24:20.445Z,93824.63
2022-12-13T08:26:47.269Z,93824.31
2022-12-13T08:29:13.831Z,93826.53
2022-12-13T08:31:50.347Z,93814.34
2022-12-13T08:34:16.955Z,93808.50
2022-12-13T08:36:43.505Z,93804.78
2022-12-13T08:39:10.118Z,93803.66
2022-12-13T08:41:39.294Z,93803.00
2022-12-13T08:44:06.432Z,93806.09
2022-12-13T08:46:33.565Z,93805.03
2022-12-13T08:49:00.268Z,93798.75
2022-12-13T08:51:29.658Z,93796.34
2022-12-13T08:54:11.061Z,93784.38
2022-12-13T08:56:38.420Z,93785.56
2022-12-13T08:59:05.255Z,93793.50
2022-12-13T09:01:31.910Z,93782.22
2022-12-13T09:03:58.571Z,93781.81
2022-12-13T09:06:25.189Z,93783.44
2022-12-13T09:08:54.019Z,93775.91
2022-12-13T09:11:33.183Z,93781.91
2022-12-13T09:14:02.006Z,93774.41
2022-12-13T09:16:35.756Z,93775.72
2022-12-13T09:19:06.553Z,93763.81
2022-12-13T09:21:51.951Z,93759.41
2022-12-13T09:24:24.143Z,93750.25
2022-12-13T09:26:57.217Z,93744.69
2022-12-13T09:29:27.205Z,93738.66
2022-12-13T09:31:54.013Z,93738.28
2022-12-13T09:34:20.745Z,93739.44
2022-12-13T09:36:47.399Z,93741.75
2022-12-13T09:39:14.016Z,93734.63
2022-12-13T09:42:00.814Z,93737.88
2022-12-13T09:44:42.720Z,93729.59
2022-12-13T09:47:22.965Z,93735.38
2022-12-13T09:49:52.644Z,93729.44
2022-12-13T09:52:23.770Z,93735.78
2022-12-13T09:54:54.332Z,93732.34
2022-12-13T09:57:32.932Z,93736.47
2022-12-13T10:00:13.398Z,93732.66
2022-12-13T10:02:55.335Z,93727.16
2022-12-13T10:05:35.750Z,93737.16
2022-12-13T10:08:35.592Z,93733.91
2022-12-13T10:11:03.504Z,93736.78
2022-12-13T10:13:38.781Z,93727.91
2022-12-13T10:16:12.694Z,93738.22
2022-12-13T10:18:42.072Z,93736.03
2022-12-13T10:21:24.142Z,93729.53
2022-12-13T10:24:23.732Z,93732.00
2022-12-13T10:26:39.082Z,93720.84
2022-12-13T10:29:06.955Z,93714.16
2022-12-13T10:31:42.363Z,93697.41
2022-12-13T10:34:35.585Z,93691.63
2022-12-13T10:37:30.683Z,93685.56
2022-12-13T10:39:58.804Z,93688.47
2022-12-13T10:42:32.142Z,93683.34
2022-12-13T10:45:15.264Z,93688.38
2022-12-13T10:47:44.481Z,93673.94
2022-12-13T10:50:24.490Z,93680.59
2022-12-13T10:52:51.682Z,93673.97
2022-12-13T10:55:32.276Z,93665.78
2022-12-13T10:58:18.251Z,93661.66
2022-12-13T11:00:47.221Z,93670.63
2022-12-13T11:03:30.906Z,93660.81
2022-12-13T11:06:13.772Z,93661.41
2022-12-13T11:08:40.506Z,93664.19
2022-12-13T11:11:09.477Z,93666.50
2022-12-13T11:13:44.983Z,93651.75
2022-12-13T11:16:26.900Z,93643.16
2022-12-13T11:18:57.559Z,93644.56
2022-12-13T11:21:33.292Z,93654.19
2022-12-13T11:24:03.749Z,93648.63
2022-12-13T11:26:34.507Z,93638.75
2022-12-13T11:29:06.915Z,93646.31
2022-12-13T11:31:47.287Z,93648.59
2022-12-13T11:34:35.392Z,93652.66
2022-12-13T11:37:19.458Z,93667.91
2022-12-13T11:40:06.651Z,93659.03
2022-12-13T11:42:41.356Z,93646.59
2022-12-13T11:45:22.825Z,93644.09
2022-12-13T11:48:00.394Z,93648.88
2022-12-13T11:50:34.720Z,93644.88
2022-12-13T11:53:41.142Z,93643.66
2022-12-13T11:56:31.780Z,93650.97
2022-12-13T11:59:26.348Z,93642.31
2022-12-13T12:02:16.408Z,93659.25
2022-12-13T12:04:56.643Z,93640.16
2022-12-13T12:07:48.289Z,93634.50
2022-12-13T12:10:47.488Z,93630.06
2022-12-13T12:13:29.928Z,93633.09
2022-12-13T12:16:30.895Z,93629.22
2022-12-13T12:19:01.447Z,93626.53
2022-12-13T12:22:18.900Z,93639.16
2022-12-13T12:25:04.148Z,93627.69
2022-12-13T12:28:00.552Z,93623.91
2022-12-13T12:30:53.931Z,93621.91
2022-12-13T12:33:52.266Z,93633.72
2022-12-13T12:36:56.474Z,93634.03
2022-12-13T12:39:43.237Z,93636.03
2022-12-13T12:42:25.087Z,93634.16
2022-12-13T12:45:27.021Z,93640.72
2022-12-13T12:48:58.497Z,93642.47
2022-12-13T12:51:38.095Z,93651.47
2022-12-13T12:54:16.693Z,93659.31
2022-12-13T12:56:58.784Z,93658.06
2022-12-13T12:59:45.902Z,93652.16
2022-12-13T13:02:31.324Z,93654.03
2022-12-13T13:05:19.706Z,93655.00
2022-12-13T13:08:05.948Z,93667.41
2022-12-13T13:10:33.241Z,93664.88
2022-12-13T13:13:12.187Z,93675.09
2022-12-13T13:15:39.854Z,93679.06
2022-12-13T13:18:53.059Z,93684.19
2022-12-13T13:21:33.786Z,93695.03
2022-12-13T13:24:10.003Z,93685.53
2022-12-13T13:26:42.838Z,93686.66
2022-12-13T13:29:27.054Z,93702.50
2022-12-13T13:32:02.259Z,93711.22
2022-12-13T13:34:33.254Z,93709.13
2022-12-13T13:37:04.531Z,93711.00
2022-12-13T13:39:31.087Z,93708.75
2022-12-13T13:42:21.841Z,93712.13
2022-12-13T13:44:48.558Z,93708.47
2022-12-13T13:47:16.616Z,93699.09
2022-12-13T13:50:11.201Z,93694.44
2022-12-13T13:53:12.372Z,93697.72
2022-12-13T13:56:13.127Z,93686.66
2022-12-13T13:59:13.803Z,93689.44
2022-12-13T14:02:17.586Z,93682.44
2022-12-13T14:05:08.841Z,93672.81
2022-12-13T14:07:53.406Z,93661.75
2022-12-13T14:10:47.131Z,93657.66
2022-12-13T14:13:48.783Z,93654.09
2022-12-13T14:16:24.429Z,93671.28
2022-12-13T14:19:28.730Z,93673.50
2022-12-13T14:22:07.019Z,93678.38
2022-12-13T14:24:51.787Z,93681.94
2022-12-13T14:27:27.156Z,93682.94
2022-12-13T14:29:58.273Z,93668.75
2022-12-13T14:32:27.680Z,93654.91
2022-12-13T14:34:59.627Z,93638.59
2022-12-13T14:37:59.882Z,93640.19
2022-12-13T14:40:28.801Z,93649.16
2022-12-13T14:43:00.771Z,93662.19
2022-12-13T14:45:29.737Z,93660.94
2022-12-13T14:48:16.217Z,93668.34
2022-12-13T14:50:55.919Z,93666.88
2022-12-13T14:53:41.868Z,93667.31
2022-12-13T14:56:27.401Z,93666.09
2022-12-13T14:59:15.508Z,93675.75
2022-12-13T15:01:43.189Z,93678.44
2022-12-13T15:04:22.058Z,93684.50
2022-12-13T15:06:55.409Z,93681.88
2022-12-13T15:09:23.672Z,93694.75
2022-12-13T15:12:01.393Z,93698.47
2022-12-13T15:14:51.095Z,93696.78
2022-12-13T15:17:39.791Z,93694.59
2022-12-13T15:20:23.672Z,93703.75
2022-12-13T15:22:58.831Z,93712.41
2022-12-13T15:25:25.793Z,93717.09
2022-12-13T15:27:55.094Z,93720.00
2022-12-13T15:30:21.925Z,93716.50
2022-12-13T15:33:17.822Z,93707.97
2022-12-13T15:35:48.036Z,93718.81
2022-12-13T15:38:28.715Z,93717.56
2022-12-13T15:40:56.436Z,93723.63
2022-12-13T15:43:31.480Z,93719.91
2022-12-13T15:45:58.293Z,93713.16
2022-12-13T15:48:29.377Z,93715.53
2022-12-13T15:51:29.382Z,93710.44
2022-12-13T15:54:19.927Z,93702.00
2022-12-13T15:57:21.686Z,93698.31
2022-12-13T15:59:48.867Z,93693.03
2022-12-13T16:02:25.495Z,93700.91
2022-12-13T16:04:52.419Z,93699.38
2022-12-13T16:07:38.052Z,93695.81
2022-12-13T16:10:06.865Z,93694.59
2022-12-13T16:12:47.859Z,93697.41
2022-12-13T16:15:28.836Z,93695.00
2022-12-13T16:18:07.256Z,93702.31
2022-12-13T16:20:34.602Z,93704.88
2022-12-13T16:23:01.218Z,93717.75
2022-12-13T16:25:36.060Z,93708.41
2022-12-13T16:28:05.374Z,93707.78
2022-12-13T16:31:13.433Z,93709.66
2022-12-13T16:33:40.087Z,93709.50
2022-12-13T16:36:08.602Z,93702.34
2022-12-13T16:38:35.224Z,93706.81
2022-12-13T16:41:08.961Z,93702.00
2022-12-13T16:43:42.828Z,93697.31
2022-12-13T16:47:10.000Z,93702.50
2022-12-13T16:49:02.126Z,93699.69
2022-12-13T16:51:28.733Z,93702.66
2022-12-13T16:53:55.417Z,93704.06
2022-12-13T16:56:22.071Z,93707.31
2022-12-13T16:58:50.516Z,93711.22
2022-12-13T17:01:20.954Z,93713.56
2022-12-13T17:03:48.230Z,93719.28
2022-12-13T17:06:20.390Z,93724.69
2022-12-13T17:08:47.007Z,93717.88
2022-12-13T17:11:18.010Z,93721.16
2022-12-13T17:13:49.844Z,93723.00
2022-12-13T17:16:16.584Z,93716.81
2022-12-13T17:18:43.374Z,93720.25
2022-12-13T17:21:11.014Z,93719.16
2022-12-13T17:23:38.001Z,93721.00
2022-12-13T17:26:06.934Z,93716.03
2022-12-13T17:28:34.207Z,93707.50
2022-12-13T17:31:09.149Z,93707.50
2022-12-13T17:33:38.678Z,93695.81
2022-12-13T17:36:06.755Z,93704.06
2022-12-13T17:38:33.401Z,93709.34
2022-12-13T17:41:00.838Z,93707.78
2022-12-13T17:43:34.524Z,93708.97
2022-12-13T17:46:02.733Z,93699.22
2022-12-13T17:48:39.044Z,93706.41
2022-12-13T17:51:08.595Z,93718.44
2022-12-13T17:53:36.108Z,93721.75
2022-12-13T17:56:06.600Z,93722.06
2022-12-13T17:58:34.179Z,93723.31
2022-12-13T18:01:20.056Z,93720.81
2022-12-13T18:03:49.033Z,93734.22
2022-12-13T18:06:19.140Z,93718.06
2022-12-13T18:08:46.888Z,93721.25
2022-12-13T18:14:03.747Z,93704.34
2022-12-13T18:16:58.842Z,93708.88
2022-12-13T18:19:32.105Z,93702.22
2022-12-13T18:21:59.854Z,93706.78
2022-12-13T18:24:26.460Z,93708.16
2022-12-13T18:27:12.124Z,93717.09
2022-12-13T18:29:42.815Z,93707.13
2022-12-13T18:32:21.897Z,93717.44
2022-12-13T18:34:54.763Z,93728.63
2022-12-13T18:37:26.173Z,93736.81
2022-12-13T18:39:54.586Z,93732.94
2022-12-13T18:42:21.823Z,93731.25
2022-12-13T18:44:54.106Z,93731.41
2022-12-13T18:47:21.697Z,93719.78
2022-12-13T18:49:54.764Z,93737.88
2022-12-13T18:52:23.954Z,93739.91
2022-12-13T18:54:54.557Z,93744.47
2022-12-13T18:57:21.758Z,93753.34
2022-12-13T18:59:54.556Z,93753.63
2022-12-13T19:02:31.073Z,93751.00
2022-12-13T19:05:01.059Z,93748.50
2022-12-13T19:07:30.069Z,93751.78
2022-12-13T19:09:59.431Z,93751.16
2022-12-13T19:12:26.189Z,93745.81
2022-12-13T19:14:54.734Z,93747.00
2022-12-13T19:17:22.088Z,93746.78
2022-12-13T19:19:48.964Z,93746.16
2022-12-13T19:22:18.389Z,93745.59
2022-12-13T19:24:47.923Z,93748.91
2022-12-13T19:27:15.262Z,93750.22
2022-12-13T19:29:44.298Z,93748.66
2022-12-13T19:32:11.350Z,93754.66
2022-12-13T19:34:39.849Z,93755.81
2022-12-13T19:37:09.423Z,93744.78
2022-12-13T19:39:36.100Z,93740.75
2022-12-13T19:42:02.753Z,93727.91
2022-12-13T19:44:29.348Z,93727.34
2022-12-13T19:46:56.250Z,93731.69
2022-12-13T19:49:22.934Z,93735.00
2022-12-13T19:51:49.613Z,93736.69
2022-12-13T19:54:16.188Z,93737.94
2022-12-13T19:56:42.829Z,93749.88
2022-12-13T19:59:09.436Z,93746.00
2022-12-13T20:01:36.166Z,93746.63
2022-12-13T20:04:02.876Z,93746.16
2022-12-13T20:06:30.222Z,93744.13
2022-12-13T20:08:56.850Z,93748.16
2022-12-13T20:11:23.651Z,93743.66
2022-12-13T20:13:54.590Z,93749.72
2022-12-13T20:16:24.640Z,93746.16
2022-12-13T20:18:59.659Z,93746.78
2022-12-13T20:21:28.677Z,93747.25
2022-12-13T20:23:55.727Z,93744.47
2022-12-13T20:26:25.009Z,93741.69
2022-12-13T20:28:52.018Z,93741.81
2022-12-13T20:31:21.424Z,93743.38
2022-12-13T20:33:48.249Z,93746.75
2022-12-13T20:36:24.569Z,93734.47
2022-12-13T20:38:52.909Z,93732.50
2022-12-13T20:41:19.626Z,93731.56
2022-12-13T20:43:48.482Z,93735.78
2022-12-13T20:46:15.692Z,93732.06
2022-12-13T20:48:44.414Z,93732.66
2022-12-13T20:51:13.619Z,93740.72
2022-12-13T20:53:43.427Z,93737.91
2022-12-13T20:56:13.298Z,93745.69
2022-12-13T20:58:41.878Z,93753.59
2022-12-13T21:01:15.539Z,93753.88
2022-12-13T21:03:42.291Z,93758.75
2022-12-13T21:06:09.005Z,93757.84
2022-12-13T21:08:54.065Z,93756.91
2022-12-13T21:11:25.074Z,93772.91
2022-12-13T21:13:53.307Z,93760.13
2022-12-13T21:16:20.814Z,93759.09
2022-12-13T21:18:48.270Z,93753.50
2022-12-13T21:21:15.113Z,93760.91
2022-12-13T21:23:41.687Z,93762.47
2022-12-13T21:26:08.459Z,93759.22
2022-12-13T21:28:35.186Z,93762.75
2022-12-13T21:31:07.896Z,93776.00
2022-12-13T21:33:36.777Z,93775.69
2022-12-13T21:36:42.715Z,93776.31
2022-12-13T21:39:22.597Z,93775.56
2022-12-13T21:41:49.379Z,93779.28
2022-12-13T21:44:17.766Z,93774.94
2022-12-13T21:49:31.136Z,93760.63
2022-12-13T21:51:57.684Z,93765.28
2022-12-13T21:54:24.547Z,93764.66
2022-12-13T21:57:09.890Z,93761.38
2022-12-13T21:59:36.487Z,93766.22
2022-12-13T22:02:20.547Z,93764.97
2022-12-13T22:04:50.686Z,93760.31
2022-12-13T22:07:32.018Z,93756.09
2022-12-13T22:10:00.180Z,93756.59
2022-12-13T22:12:31.455Z,93760.94
2022-12-13T22:14:58.315Z,93773.38
2022-12-13T22:17:33.106Z,93768.53
2022-12-13T22:20:02.700Z,93776.16
2022-12-13T22:22:29.383Z,93776.16
2022-12-13T22:24:56.090Z,93770.56
2022-12-13T22:27:26.055Z,93758.16
2022-12-13T22:29:57.076Z,93770.44
2022-12-13T22:32:27.168Z,93773.94
2022-12-13T22:34:54.226Z,93769.44
2022-12-13T22:37:21.000Z,93774.28
2022-12-13T22:39:47.672Z,93784.06
2022-12-13T22:42:14.376Z,93781.34
2022-12-13T22:44:40.978Z,93786.38
2022-12-13T22:47:07.605Z,93782.06
2022-12-13T22:49:34.259Z,93783.63
2022-12-13T22:52:00.907Z,93787.03
2022-12-13T22:54:27.540Z,93779.38
2022-12-13T22:56:54.350Z,93794.97
2022-12-13T22:59:20.938Z,93784.41
2022-12-13T23:01:47.779Z,93778.81
2022-12-13T23:04:15.396Z,93781.59
2022-12-13T23:06:42.101Z,93781.47
2022-12-13T23:09:12.090Z,93780.50
2022-12-13T23:11:57.365Z,93773.16
2022-12-13T23:14:32.565Z,93781.41
2022-12-13T23:17:00.462Z,93784.88
2022-12-13T23:19:49.678Z,93787.03
2022-12-13T23:22:14.564Z,93783.16
2022-12-13T23:24:41.154Z,93780.38
2022-12-13T23:27:07.922Z,93787.38
2022-12-13T23:29:34.489Z,93782.88
2022-12-13T23:32:01.105Z,93788.13
2022-12-13T23:34:27.680Z,93792.50
2022-12-13T23:36:54.334Z,93789.38
2022-12-13T23:39:20.949Z,93795.13
2022-12-13T23:41:47.560Z,93787.34
2022-12-13T23:44:14.202Z,93795.91
2022-12-13T23:46:40.866Z,93799.91
2022-12-13T23:49:09.415Z,93791.84
2022-12-13T23:51:37.895Z,93793.28
2022-12-13T23:54:07.701Z,93805.97
2022-12-13T23:56:34.331Z,93797.56
2022-12-13T23:59:00.953Z,93796.69
